KOLF

Wolf Point

Airport
ICAO code
KOLF
Summary
ICAO Region
NAM
ICAO Territory
Location

Wolf Point, Roosevelt, Montana,

Coordinates
48° 5' 40" N , 105° 34' 30" W
KCC
Metar
KOLF 251753Z AUTO 23008KT 10SM CLR 36/12 A2983 RMK AO2 SLP082 T03560122 10356 20283 56010

Description

L. M. Clayton Airport is a public airport located 5 km east of the central business district (CBD) of Wolf Point, a city in Roosevelt County, Montana, USA.

Climatology

Wolf Point experiences a semi-arid steppe climate (Köppen climate classification BSk), with generally cold, dry winters and hot summers. Late spring and early summer is on average the wettest period of the year. During the summer warm, humid air masses more typical of a warm summer continental climate (Köppen climate classification Dfb) may move into the area from the south or east. Summertime thunderstorms commonly occur and sometimes can be severe featuring hail and, infrequently, funnel clouds or tornados.

Runways

Designator Length Width Surface Rops
11/29 1551 30 ASP No/No

Airport map

Aerial View

SKYbrary Partners:

Safety knowledge contributed by: